Time;durP1;ratioP1;P1;durP2;ratioP2;P2;SDS_P1;SDS_P2;PMS_P1;PMS_P2;Temp;Humidity;BMP_temperature;BMP_pressure;BME280_temperature;BME280_humidity;BME280_pressure;Samples;Min_cycle;Max_cycle;Signal;HPM_P1;HPM_P2
2021/03/11 00:02:08;;;;;;;18.70;11.03;;;;;;;8.28;72.81;99864.64;647245;220;26090;-75
2021/03/11 00:04:36;;;;;;;15.33;10.27;;;;;;;8.38;72.93;99876.33;647988;220;24943;-74
2021/03/11 00:07:04;;;;;;;17.20;11.07;;;;;;;8.36;73.39;99873.55;635048;225;28142;-76
2021/03/11 00:09:32;;;;;;;14.33;9.70;;;;;;;8.36;73.32;99876.95;633410;225;24939;-76
2021/03/11 00:12:00;;;;;;;15.23;9.33;;;;;;;8.22;73.31;99874.27;637501;225;24969;-76
2021/03/11 00:14:28;;;;;;;17.03;9.93;;;;;;;8.17;73.76;99881.66;638756;225;25016;-76
2021/03/11 00:16:55;;;;;;;16.10;10.43;;;;;;;8.16;73.48;99878.70;650049;220;26048;-76
2021/03/11 00:19:23;;;;;;;15.10;9.40;;;;;;;8.35;73.92;99870.13;638561;225;24847;-75
2021/03/11 00:21:51;;;;;;;14.00;9.93;;;;;;;8.36;72.79;99870.95;649864;220;24833;-75
2021/03/11 00:24:19;;;;;;;17.87;9.97;;;;;;;8.51;73.67;99865.66;635950;222;24858;-75
2021/03/11 00:26:47;;;;;;;13.60;8.93;;;;;;;8.42;73.08;99862.13;634282;225;24852;-75
2021/03/11 00:29:15;;;;;;;12.23;8.13;;;;;;;8.56;72.16;99856.50;634794;224;24854;-74
2021/03/11 00:31:43;;;;;;;10.67;7.80;;;;;;;8.46;73.06;99849.73;637424;224;24996;-74
2021/03/11 00:34:11;;;;;;;12.10;7.40;;;;;;;8.36;72.52;99848.45;635442;225;24855;-75
2021/03/11 00:36:38;;;;;;;10.40;7.43;;;;;;;8.50;72.06;99839.41;650357;220;24827;-75
2021/03/11 00:39:06;;;;;;;17.90;8.83;;;;;;;8.46;72.73;99827.22;641531;223;32338;-76
2021/03/11 00:41:35;;;;;;;11.30;8.00;;;;;;;8.49;71.53;99815.75;634026;224;25069;-76
2021/03/11 00:44:03;;;;;;;12.78;7.60;;;;;;;8.53;71.29;99802.84;632596;224;32631;-76
2021/03/11 00:46:30;;;;;;;11.50;7.80;;;;;;;8.52;71.47;99798.61;635767;226;23762;-76
2021/03/11 00:48:58;;;;;;;10.50;7.60;;;;;;;8.71;71.62;99784.27;638330;224;24887;-76
2021/03/11 00:51:26;;;;;;;11.03;7.27;;;;;;;8.61;70.27;99784.33;645695;220;25198;-76
2021/03/11 00:53:54;;;;;;;11.80;8.13;;;;;;;8.66;70.26;99778.70;636562;225;24868;-76
2021/03/11 00:56:22;;;;;;;10.70;6.20;;;;;;;8.80;70.38;99769.16;647356;221;24813;-75
2021/03/11 00:58:50;;;;;;;9.83;6.57;;;;;;;8.83;70.63;99762.86;638024;224;24850;-75
2021/03/11 01:01:18;;;;;;;11.28;7.30;;;;;;;9.09;70.26;99758.60;635489;221;32701;-76
2021/03/11 01:03:45;;;;;;;15.67;7.27;;;;;;;8.78;69.84;99753.41;643527;221;23814;-76
2021/03/11 01:06:13;;;;;;;8.10;6.07;;;;;;;8.77;70.39;99744.81;630744;226;24943;-76
2021/03/11 01:08:41;;;;;;;10.57;6.63;;;;;;;8.96;69.80;99740.47;649679;220;24869;-76
2021/03/11 01:11:09;;;;;;;8.53;5.87;;;;;;;8.78;70.22;99732.19;642462;220;24840;-76
2021/03/11 01:13:37;;;;;;;10.20;7.20;;;;;;;8.85;69.53;99723.33;635648;221;28023;-76
2021/03/11 01:16:06;;;;;;;9.93;6.20;;;;;;;8.82;68.83;99711.96;645795;221;25875;-75
2021/03/11 01:18:34;;;;;;;8.77;5.27;;;;;;;8.92;69.70;99713.53;636835;225;24895;-75
2021/03/11 01:21:01;;;;;;;8.40;6.40;;;;;;;8.87;68.57;99701.98;636598;225;25157;-75
2021/03/11 01:23:29;;;;;;;10.00;6.53;;;;;;;9.02;68.64;99691.91;642217;220;32388;-76
2021/03/11 01:25:57;;;;;;;8.50;5.80;;;;;;;8.99;68.75;99694.30;635700;221;24863;-75
2021/03/11 01:28:25;;;;;;;7.60;5.43;;;;;;;8.92;68.00;99681.12;647712;221;24803;-74
2021/03/11 01:30:53;;;;;;;12.50;6.30;;;;;;;9.05;68.46;99673.45;635833;224;24863;-74
2021/03/11 01:33:21;;;;;;;12.50;6.57;;;;;;;9.11;68.14;99674.14;641244;221;24901;-73
2021/03/11 01:35:48;;;;;;;9.97;6.00;;;;;;;9.01;68.25;99669.05;645445;221;24957;-76
2021/03/11 01:38:16;;;;;;;9.80;6.00;;;;;;;9.00;68.27;99659.61;631806;225;23910;-76
2021/03/11 01:40:45;;;;;;;7.40;4.97;;;;;;;8.94;68.37;99655.03;633300;225;24877;-76
2021/03/11 01:43:12;;;;;;;8.50;5.87;;;;;;;9.17;67.30;99654.11;638825;225;24865;-76
2021/03/11 01:45:41;;;;;;;10.70;5.87;;;;;;;9.05;67.40;99642.33;649052;220;24831;-76
2021/03/11 01:48:09;;;;;;;10.00;5.60;;;;;;;8.99;67.29;99639.02;650092;220;24810;-76
2021/03/11 01:50:36;;;;;;;9.03;5.33;;;;;;;8.88;68.29;99622.74;634979;226;24965;-76
2021/03/11 01:53:04;;;;;;;7.67;5.10;;;;;;;8.78;68.32;99614.22;636074;225;24890;-76
2021/03/11 01:55:32;;;;;;;9.90;5.70;;;;;;;8.85;68.20;99607.45;637241;224;24880;-76
2021/03/11 01:58:00;;;;;;;8.20;5.67;;;;;;;8.93;68.10;99602.36;639581;224;24903;-76
2021/03/11 02:00:28;;;;;;;11.33;6.33;;;;;;;9.03;67.66;99597.58;633429;224;32543;-76
2021/03/11 02:02:56;;;;;;;6.33;4.70;;;;;;;9.07;67.13;99585.44;649369;220;24816;-76
2021/03/11 02:05:24;;;;;;;8.40;5.27;;;;;;;9.00;67.95;99574.51;635770;224;24874;-76
2021/03/11 02:07:52;;;;;;;7.30;5.23;;;;;;;8.96;67.12;99566.70;633980;225;24888;-76
2021/03/11 02:10:21;;;;;;;8.77;5.33;;;;;;;8.93;67.77;99566.05;635599;225;24915;-76
2021/03/11 02:12:48;;;;;;;6.63;4.73;;;;;;;9.00;67.70;99566.24;638827;221;24898;-75
2021/03/11 02:15:17;;;;;;;10.03;5.17;;;;;;;9.08;66.65;99566.80;638880;221;24841;-75
2021/03/11 02:17:45;;;;;;;9.33;5.73;;;;;;;8.97;67.67;99567.03;635848;225;24870;-76
2021/03/11 02:20:22;;;;;;;7.40;4.57;;;;;;;8.97;67.62;99557.95;638672;225;24846;-76
2021/03/11 02:22:56;;;;;;;8.10;5.67;;;;;;;9.04;67.53;99552.03;635580;224;24855;-76
2021/03/11 02:25:26;;;;;;;8.00;6.03;;;;;;;9.02;67.20;99553.97;633965;225;25801;-76
2021/03/11 02:27:58;;;;;;;12.80;6.60;;;;;;;8.98;66.79;99549.21;636430;225;25966;-76
2021/03/11 02:30:26;;;;;;;8.00;5.30;;;;;;;8.93;67.72;99547.89;635984;225;24873;-77
2021/03/11 02:32:53;;;;;;;8.40;5.83;;;;;;;9.02;68.35;99548.78;631246;225;24870;-76
2021/03/11 02:35:21;;;;;;;8.63;6.23;;;;;;;9.06;68.09;99537.13;633288;226;24943;-77
2021/03/11 02:37:50;;;;;;;8.33;5.80;;;;;;;8.95;67.96;99525.70;642941;221;24876;-76
2021/03/11 02:40:17;;;;;;;10.23;6.40;;;;;;;8.96;69.06;99524.73;636391;225;24955;-76
2021/03/11 02:42:45;;;;;;;9.00;6.10;;;;;;;8.97;68.99;99520.35;646655;221;24817;-75
2021/03/11 02:45:13;;;;;;;11.27;6.30;;;;;;;9.04;68.94;99518.80;637482;225;24861;-75
2021/03/11 02:47:41;;;;;;;9.53;6.03;;;;;;;9.12;68.32;99511.05;636029;225;25195;-77
2021/03/11 02:50:09;;;;;;;8.50;5.73;;;;;;;9.15;68.07;99502.50;639798;223;24869;-74
2021/03/11 02:52:37;;;;;;;11.40;7.10;;;;;;;9.23;68.02;99503.02;646922;221;24903;-74
2021/03/11 02:55:05;;;;;;;10.57;7.10;;;;;;;9.08;68.04;99488.50;646046;221;24822;-76
2021/03/11 02:57:33;;;;;;;11.27;6.70;;;;;;;9.11;68.53;99493.86;633938;225;24969;-76
2021/03/11 03:00:01;;;;;;;9.90;7.20;;;;;;;9.06;68.74;99493.03;625723;225;24968;-76
2021/03/11 03:02:29;;;;;;;8.83;6.37;;;;;;;9.05;69.32;99490.59;647105;220;24795;-76
2021/03/11 03:04:57;;;;;;;11.57;6.60;;;;;;;9.13;69.97;99485.44;637005;224;24856;-76
2021/03/11 03:07:25;;;;;;;10.93;7.40;;;;;;;9.09;70.23;99486.72;648938;220;24858;-76
2021/03/11 03:09:52;;;;;;;8.98;6.83;;;;;;;9.28;69.64;99490.86;632925;224;43548;-76
2021/03/11 03:12:20;;;;;;;9.50;7.07;;;;;;;9.14;70.22;99487.88;635758;224;24866;-76
2021/03/11 03:14:48;;;;;;;10.47;6.60;;;;;;;9.11;69.98;99480.89;646191;221;24920;-77
2021/03/11 03:17:16;;;;;;;10.60;7.40;;;;;;;9.11;70.53;99487.38;637942;225;27046;-76
2021/03/11 03:19:44;;;;;;;11.50;6.80;;;;;;;9.12;70.33;99494.19;647493;220;25085;-75
2021/03/11 03:22:12;;;;;;;10.13;6.60;;;;;;;9.24;70.51;99489.06;631071;224;32677;-76
2021/03/11 03:24:40;;;;;;;9.93;6.33;;;;;;;9.14;71.04;99490.47;650246;220;25215;-76
2021/03/11 03:27:08;;;;;;;9.50;6.77;;;;;;;9.15;70.53;99490.02;641586;221;24855;-76
2021/03/11 03:29:36;;;;;;;11.50;6.60;;;;;;;9.12;70.98;99496.30;647961;221;26018;-76
2021/03/11 03:32:05;;;;;;;9.70;7.23;;;;;;;9.13;70.47;99483.66;630544;224;32580;-76
2021/03/11 03:34:33;;;;;;;10.23;6.40;;;;;;;9.15;70.80;99482.23;638818;221;27130;-76
2021/03/11 03:37:01;;;;;;;7.90;5.60;;;;;;;9.15;72.56;99490.83;644091;221;24934;-76
2021/03/11 03:39:29;;;;;;;7.10;5.40;;;;;;;9.10;73.41;99482.67;631665;225;24947;-76
2021/03/11 03:41:57;;;;;;;10.90;6.33;;;;;;;9.11;73.77;99486.08;637791;221;24906;-76
2021/03/11 03:44:25;;;;;;;9.77;6.20;;;;;;;9.15;74.53;99480.93;641731;221;32596;-76
2021/03/11 03:46:53;;;;;;;8.20;5.50;;;;;;;9.15;75.05;99472.67;642340;223;24922;-76
2021/03/11 03:49:21;;;;;;;14.73;6.53;;;;;;;9.18;74.98;99472.84;650697;220;24807;-76
2021/03/11 03:51:49;;;;;;;8.53;6.10;;;;;;;9.20;74.75;99470.41;646770;220;31314;-76
2021/03/11 03:54:17;;;;;;;8.77;6.20;;;;;;;9.25;75.48;99478.20;636398;225;24867;-76
2021/03/11 03:56:45;;;;;;;7.23;5.10;;;;;;;9.25;75.41;99481.61;648624;221;23817;-76
2021/03/11 03:59:13;;;;;;;9.77;6.27;;;;;;;9.37;76.05;99486.86;636300;221;32521;-76
2021/03/11 04:01:41;;;;;;;8.25;5.70;;;;;;;9.39;75.11;99486.22;642144;221;32408;-76
2021/03/11 04:04:09;;;;;;;7.63;5.47;;;;;;;9.34;75.23;99479.39;632838;225;23725;-76
2021/03/11 04:06:37;;;;;;;8.60;6.20;;;;;;;9.45;75.56;99483.02;640512;220;35376;-76
2021/03/11 04:09:05;;;;;;;6.07;4.80;;;;;;;9.40;75.40;99489.14;646185;220;25924;-76
2021/03/11 04:11:33;;;;;;;9.77;6.10;;;;;;;9.40;74.91;99484.44;650423;220;24801;-76
2021/03/11 04:14:01;;;;;;;8.90;5.83;;;;;;;9.31;74.50;99476.31;637242;225;24851;-76
2021/03/11 04:16:29;;;;;;;8.63;6.30;;;;;;;9.30;73.65;99468.20;639171;221;25078;-76
2021/03/11 04:18:57;;;;;;;10.40;5.63;;;;;;;9.34;73.53;99466.91;651744;220;24831;-76
2021/03/11 04:21:24;;;;;;;13.40;7.03;;;;;;;9.32;73.62;99461.88;648561;220;24811;-76
2021/03/11 04:23:52;;;;;;;11.27;7.23;;;;;;;9.35;73.40;99460.75;652127;220;25382;-75
2021/03/11 04:26:20;;;;;;;9.40;6.30;;;;;;;9.35;72.69;99461.56;643215;220;32442;-76
2021/03/11 04:28:48;;;;;;;12.37;6.30;;;;;;;9.35;72.21;99456.37;638032;223;22828;-75
2021/03/11 04:31:16;;;;;;;10.73;6.27;;;;;;;9.23;72.16;99451.13;639859;222;24850;-75
2021/03/11 04:33:44;;;;;;;11.13;5.83;;;;;;;9.23;71.97;99451.13;641509;222;24840;-76
2021/03/11 04:36:12;;;;;;;8.37;6.00;;;;;;;9.26;72.08;99459.08;633587;225;24868;-76
2021/03/11 04:38:40;;;;;;;10.23;6.90;;;;;;;9.33;71.97;99455.72;629989;225;43318;-76
2021/03/11 04:41:07;;;;;;;11.90;6.20;;;;;;;9.31;71.70;99452.47;631905;225;24871;-76
2021/03/11 04:43:35;;;;;;;8.93;6.43;;;;;;;9.36;71.39;99440.31;635377;224;24872;-77
2021/03/11 04:46:03;;;;;;;9.43;6.30;;;;;;;9.35;72.04;99451.18;636137;225;24882;-76
2021/03/11 04:48:31;;;;;;;7.40;6.43;;;;;;;9.32;71.64;99454.09;633910;225;24882;-76
2021/03/11 04:50:59;;;;;;;9.10;5.97;;;;;;;9.41;71.53;99457.52;647562;221;25120;-76
2021/03/11 04:53:27;;;;;;;9.90;6.13;;;;;;;9.34;72.12;99458.64;636322;225;25001;-76
2021/03/11 04:55:54;;;;;;;8.90;5.77;;;;;;;9.35;72.27;99452.48;638782;222;32285;-76
2021/03/11 04:58:22;;;;;;;8.60;5.70;;;;;;;9.34;72.31;99453.94;635924;225;24967;-77
2021/03/11 05:00:50;;;;;;;10.10;6.07;;;;;;;9.48;72.30;99458.53;643950;221;32444;-76
2021/03/11 05:03:18;;;;;;;9.97;5.83;;;;;;;9.42;73.12;99452.16;649718;221;24824;-77
2021/03/11 05:05:46;;;;;;;10.50;5.53;;;;;;;9.43;72.51;99455.12;636363;225;24901;-77
2021/03/11 05:08:14;;;;;;;8.70;5.23;;;;;;;9.42;72.72;99459.95;635398;225;24894;-76
2021/03/11 05:10:42;;;;;;;9.10;5.07;;;;;;;9.45;73.23;99453.66;649372;220;25046;-75
2021/03/11 05:13:10;;;;;;;7.70;5.50;;;;;;;9.51;73.27;99451.72;631293;224;32548;-75
2021/03/11 05:15:37;;;;;;;9.07;5.30;;;;;;;9.57;74.13;99456.76;633365;222;40046;-76
2021/03/11 05:18:06;;;;;;;6.58;4.95;;;;;;;9.61;74.83;99455.49;629977;225;32726;-75
2021/03/11 05:20:34;;;;;;;9.40;4.97;;;;;;;9.58;75.60;99465.71;635924;225;23778;-76
2021/03/11 05:23:01;;;;;;;7.50;4.80;;;;;;;9.77;74.92;99462.84;642564;220;32441;-75
2021/03/11 05:25:29;;;;;;;6.60;4.77;;;;;;;9.62;75.07;99453.22;647895;220;24893;-76
2021/03/11 05:27:57;;;;;;;7.80;5.00;;;;;;;9.71;75.26;99454.39;630556;223;32564;-76
2021/03/11 05:30:25;;;;;;;8.73;5.10;;;;;;;9.72;75.06;99455.21;644935;220;34434;-76
2021/03/11 05:32:53;;;;;;;7.42;5.40;;;;;;;9.79;74.63;99441.91;634100;224;32538;-76
2021/03/11 05:35:21;;;;;;;8.07;5.30;;;;;;;9.66;75.04;99432.45;641123;223;23746;-76
2021/03/11 05:37:49;;;;;;;6.20;4.33;;;;;;;9.67;74.76;99428.40;641438;223;27049;-76
2021/03/11 05:40:17;;;;;;;8.50;4.40;;;;;;;9.70;75.03;99424.19;637097;225;24872;-76
2021/03/11 05:42:45;;;;;;;6.83;3.93;;;;;;;9.69;76.22;99430.84;632701;225;24856;-76
2021/03/11 05:45:13;;;;;;;5.80;4.10;;;;;;;9.74;75.73;99418.20;649929;220;24796;-76
2021/03/11 05:47:41;;;;;;;10.70;4.87;;;;;;;9.72;75.97;99421.45;647143;221;24779;-76
2021/03/11 05:50:10;;;;;;;4.73;4.00;;;;;;;9.75;76.54;99404.25;644256;221;24864;-76
2021/03/11 05:52:38;;;;;;;5.17;3.67;;;;;;;9.75;75.67;99401.66;647561;221;24808;-76
2021/03/11 05:55:07;;;;;;;5.53;3.50;;;;;;;9.73;76.11;99401.00;638447;225;23863;-76
2021/03/11 05:57:35;;;;;;;5.70;3.83;;;;;;;9.79;76.62;99393.86;644064;221;24890;-76
2021/03/11 06:00:03;;;;;;;7.20;3.90;;;;;;;9.78;77.32;99389.16;639250;221;24856;-76
2021/03/11 06:02:30;;;;;;;5.63;3.43;;;;;;;9.75;77.35;99364.81;646144;221;24870;-76
2021/03/11 06:04:58;;;;;;;4.37;3.20;;;;;;;9.80;77.93;99385.09;646624;221;24791;-76
2021/03/11 06:07:26;;;;;;;4.63;3.10;;;;;;;9.87;78.31;99389.99;641437;223;24880;-77
2021/03/11 06:09:55;;;;;;;4.20;3.20;;;;;;;9.85;78.55;99380.22;636651;225;24867;-76
2021/03/11 06:12:24;;;;;;;7.03;3.60;;;;;;;9.89;78.11;99376.84;636306;225;24514;-76
2021/03/11 06:14:52;;;;;;;7.20;3.50;;;;;;;9.87;78.24;99382.20;635940;225;24900;-75
2021/03/11 06:17:20;;;;;;;5.03;2.90;;;;;;;9.93;79.07;99384.14;647341;221;24845;-76
2021/03/11 06:19:48;;;;;;;4.33;3.47;;;;;;;9.93;78.46;99380.73;650013;221;23848;-76
2021/03/11 06:22:16;;;;;;;7.10;3.30;;;;;;;9.96;78.41;99379.91;636555;224;24861;-76
2021/03/11 06:24:45;;;;;;;3.40;2.43;;;;;;;9.99;78.85;99387.41;633520;225;24952;-76
2021/03/11 06:27:13;;;;;;;4.10;2.97;;;;;;;9.95;78.69;99362.70;641649;221;24865;-76
2021/03/11 06:29:41;;;;;;;5.40;3.00;;;;;;;10.03;78.66;99378.31;633930;225;24933;-76
2021/03/11 06:32:09;;;;;;;4.37;2.70;;;;;;;10.15;78.97;99366.30;631828;225;24978;-76
2021/03/11 06:34:37;;;;;;;3.63;2.70;;;;;;;10.09;77.95;99371.15;648185;221;24874;-76
2021/03/11 06:37:05;;;;;;;4.83;2.70;;;;;;;10.07;77.38;99361.41;644668;221;24882;-76
2021/03/11 06:39:32;;;;;;;3.37;2.73;;;;;;;10.05;77.53;99360.77;646366;219;24833;-75
2021/03/11 06:42:00;;;;;;;6.20;3.00;;;;;;;10.04;77.18;99355.25;634165;224;24866;-76
2021/03/11 06:44:36;;;;;;;4.10;3.03;;;;;;;10.05;78.05;99358.17;649958;220;24890;-76
2021/03/11 06:47:04;;;;;;;6.10;2.93;;;;;;;10.12;77.35;99348.73;636994;224;24844;-75
2021/03/11 06:49:32;;;;;;;3.30;2.97;;;;;;;10.22;78.00;99356.89;641757;221;24944;-75
2021/03/11 06:52:08;;;;;;;3.93;2.87;;;;;;;10.37;77.60;99356.55;638662;221;32660;-77
2021/03/11 06:54:54;;;;;;;4.63;3.00;;;;;;;10.28;77.58;99353.66;643857;221;23882;-76
2021/03/11 06:57:27;;;;;;;3.23;2.60;;;;;;;10.31;78.01;99346.81;644228;221;24856;-76
2021/03/11 06:59:55;;;;;;;6.60;2.70;;;;;;;10.42;78.05;99350.87;642657;221;24874;-75
2021/03/11 07:02:23;;;;;;;3.63;2.90;;;;;;;10.34;78.37;99352.98;644090;221;24852;-76
2021/03/11 07:04:51;;;;;;;3.43;2.50;;;;;;;10.36;78.71;99356.22;644145;221;24883;-75
2021/03/11 07:07:19;;;;;;;3.27;2.33;;;;;;;10.38;78.80;99354.27;625207;225;24933;-76
2021/03/11 07:09:48;;;;;;;6.80;2.30;;;;;;;10.48;78.35;99353.60;640265;221;24871;-76
2021/03/11 07:12:15;;;;;;;3.60;2.50;;;;;;;10.49;78.75;99355.22;640016;221;24829;-76
2021/03/11 07:14:43;;;;;;;3.80;2.93;;;;;;;10.45;79.06;99337.05;635139;225;24908;-76
2021/03/11 07:17:19;;;;;;;3.53;2.30;;;;;;;10.58;78.58;99346.44;636553;225;27153;-76
2021/03/11 07:20:10;;;;;;;4.03;2.40;;;;;;;10.74;78.60;99349.97;643285;221;43318;-75
2021/03/11 07:22:38;;;;;;;4.45;2.50;;;;;;;10.85;78.12;99353.52;631869;224;43238;-75
2021/03/11 07:25:08;;;;;;;2.80;2.43;;;;;;;10.76;78.47;99354.02;650702;220;22716;-75
2021/03/11 07:27:40;;;;;;;3.70;2.37;;;;;;;10.77;78.16;99350.44;632300;225;25081;-76
2021/03/11 07:30:09;;;;;;;3.77;2.42;;;;;;;10.72;78.26;99348.03;629529;225;32614;-75
2021/03/11 07:32:37;;;;;;;3.23;2.30;;;;;;;10.70;79.40;99353.41;639120;223;23717;-75
2021/03/11 07:35:05;;;;;;;4.13;1.83;;;;;;;10.68;79.61;99366.55;638964;223;24860;-75
2021/03/11 07:37:33;;;;;;;5.03;2.53;;;;;;;10.68;79.21;99356.14;633979;225;24865;-76
2021/03/11 07:40:01;;;;;;;4.97;2.30;;;;;;;10.76;79.35;99364.91;638366;224;31527;-76
2021/03/11 07:42:29;;;;;;;3.70;2.73;;;;;;;10.74;79.57;99355.98;649291;220;23823;-76
2021/03/11 07:44:57;;;;;;;3.00;2.10;;;;;;;10.75;80.13;99354.19;640683;222;24864;-76
2021/03/11 07:47:25;;;;;;;2.60;2.33;;;;;;;10.75;80.26;99364.59;645414;221;24905;-76
2021/03/11 07:49:53;;;;;;;3.07;2.20;;;;;;;10.80;80.67;99359.69;634902;221;32711;-76
2021/03/11 07:52:21;;;;;;;3.90;2.17;;;;;;;10.79;80.38;99370.58;641359;221;24862;-75
2021/03/11 07:54:49;;;;;;;3.27;2.30;;;;;;;10.75;80.99;99356.30;640327;220;24921;-76
2021/03/11 07:57:17;;;;;;;4.40;2.23;;;;;;;10.79;80.46;99346.37;626769;224;24946;-74
2021/03/11 07:59:45;;;;;;;3.83;2.37;;;;;;;10.82;80.56;99329.11;643816;220;24835;-75
2021/03/11 08:02:13;;;;;;;1.93;1.77;;;;;;;10.82;80.89;99329.11;637073;225;23880;-75
2021/03/11 08:04:42;;;;;;;4.20;2.03;;;;;;;10.74;80.32;99329.97;638152;225;25124;-75
2021/03/11 08:07:15;;;;;;;3.47;2.27;;;;;;;10.76;80.59;99348.01;645875;221;29100;-76
2021/03/11 08:09:43;;;;;;;3.20;2.40;;;;;;;10.75;80.30;99335.49;647656;221;30171;-76
2021/03/11 08:12:21;;;;;;;4.23;1.97;;;;;;;10.75;80.62;99335.49;640228;224;24867;-76
2021/03/11 08:14:49;;;;;;;1.80;1.70;;;;;;;10.68;80.70;99339.73;649008;220;24793;-76
2021/03/11 08:17:36;;;;;;;5.07;2.07;;;;;;;10.64;80.82;99336.66;643459;221;24867;-75
2021/03/11 08:20:05;;;;;;;2.43;2.23;;;;;;;10.78;80.75;99325.23;634914;225;24852;-77
2021/03/11 08:23:02;;;;;;;4.43;2.40;;;;;;;10.83;80.00;99309.93;635006;225;24872;-74
2021/03/11 08:25:41;;;;;;;3.50;2.17;;;;;;;10.86;80.16;99301.81;646558;221;24856;-75
2021/03/11 08:28:40;;;;;;;2.60;2.03;;;;;;;10.92;78.84;99293.31;648246;220;23830;-76
2021/03/11 08:31:09;;;;;;;3.95;1.90;;;;;;;10.91;79.17;99291.70;641227;216;32456;-75
2021/03/11 08:33:46;;;;;;;1.97;1.77;;;;;;;11.00;78.19;99288.89;637412;225;22732;-76
2021/03/11 08:36:27;;;;;;;3.50;2.13;;;;;;;11.01;79.46;99287.10;633718;224;24852;-76
2021/03/11 08:38:54;;;;;;;2.00;1.80;;;;;;;10.86;81.43;99298.72;649080;220;24808;-76
2021/03/11 08:41:31;;;;;;;4.70;2.20;;;;;;;10.78;81.53;99311.74;638216;225;23857;-76
2021/03/11 08:43:58;;;;;;;8.00;2.10;;;;;;;10.81;81.49;99311.89;647451;221;24810;-75
2021/03/11 08:46:26;;;;;;;2.80;2.30;;;;;;;10.78;82.12;99303.13;647726;221;24783;-75
2021/03/11 08:48:56;;;;;;;2.10;1.90;;;;;;;10.80;81.22;99313.69;631002;225;31472;-75
2021/03/11 08:51:32;;;;;;;2.50;1.97;;;;;;;10.86;81.13;99310.91;649052;220;23803;-76
2021/03/11 08:54:00;;;;;;;2.93;2.10;;;;;;;10.85;83.33;99323.60;634570;225;24861;-76
2021/03/11 08:56:39;;;;;;;2.20;1.93;;;;;;;10.78;84.70;99338.24;637346;225;24848;-76
2021/03/11 08:59:07;;;;;;;2.27;2.07;;;;;;;10.43;88.27;99348.09;643854;220;27961;-76
2021/03/11 09:01:36;;;;;;;2.20;1.90;;;;;;;10.37;90.94;99349.55;649688;220;24820;-76
2021/03/11 09:04:04;;;;;;;2.20;1.87;;;;;;;10.59;91.49;99342.86;651280;218;24836;-75
2021/03/11 09:06:42;;;;;;;2.13;1.93;;;;;;;10.44;91.93;99339.33;637000;224;24849;-74
2021/03/11 09:09:10;;;;;;;3.23;1.80;;;;;;;10.47;93.57;99323.39;636400;225;24853;-76
2021/03/11 09:11:38;;;;;;;2.33;1.80;;;;;;;10.53;94.61;99329.20;638314;225;24839;-76
2021/03/11 09:14:09;;;;;;;2.60;1.77;;;;;;;10.43;96.28;99317.39;648980;221;29022;-76
2021/03/11 09:16:37;;;;;;;2.13;1.60;;;;;;;10.19;99.56;99305.22;637400;224;24852;-75
2021/03/11 09:19:05;;;;;;;2.67;2.20;;;;;;;10.34;99.99;99313.99;642010;221;24866;-75
2021/03/11 09:21:33;;;;;;;2.33;2.17;;;;;;;10.43;100.00;99319.51;639261;221;24825;-76
2021/03/11 09:24:01;;;;;;;2.77;1.77;;;;;;;10.40;100.00;99318.52;631913;225;24916;-74
2021/03/11 09:26:29;;;;;;;2.30;1.80;;;;;;;10.28;100.00;99302.48;632276;225;24846;-76
2021/03/11 09:28:56;;;;;;;3.70;1.70;;;;;;;10.26;100.00;99304.41;650153;220;24917;-76
2021/03/11 09:31:24;;;;;;;5.33;2.37;;;;;;;10.43;100.00;99303.91;637606;225;24822;-76
2021/03/11 09:33:53;;;;;;;5.03;2.90;;;;;;;10.42;100.00;99310.58;637065;225;24856;-76
2021/03/11 09:36:21;;;;;;;4.90;2.13;;;;;;;10.29;100.00;99314.98;640798;221;32384;-76
2021/03/11 09:38:51;;;;;;;3.30;1.87;;;;;;;10.18;100.00;99323.09;636459;221;23868;-76
2021/03/11 09:41:24;;;;;;;4.10;1.87;;;;;;;10.06;100.00;99332.52;627922;226;28080;-76
2021/03/11 09:43:51;;;;;;;2.20;2.00;;;;;;;10.03;100.00;99335.94;648534;220;24788;-76
2021/03/11 09:46:19;;;;;;;2.17;1.67;;;;;;;9.79;100.00;99352.31;636439;223;24850;-76
2021/03/11 09:48:47;;;;;;;2.63;2.43;;;;;;;9.91;100.00;99340.64;639510;221;24825;-76
2021/03/11 09:51:15;;;;;;;3.63;2.40;;;;;;;9.93;100.00;99348.27;642725;221;24821;-76
2021/03/11 09:53:43;;;;;;;4.20;2.20;;;;;;;9.85;100.00;99345.65;646029;221;24816;-76
2021/03/11 09:56:11;;;;;;;2.30;1.70;;;;;;;9.63;100.00;99332.83;638703;225;24903;-76
2021/03/11 09:58:45;;;;;;;2.97;2.67;;;;;;;9.72;100.00;99332.69;649946;219;24789;-76
2021/03/11 10:01:20;;;;;;;4.25;2.70;;;;;;;9.63;100.00;99342.73;644357;220;32381;-76
2021/03/11 10:03:48;;;;;;;5.30;3.17;;;;;;;9.60;100.00;99343.55;636954;225;23752;-76
2021/03/11 10:06:17;;;;;;;5.63;3.10;;;;;;;9.48;100.00;99350.33;648063;220;24962;-75
2021/03/11 10:08:45;;;;;;;4.60;3.20;;;;;;;9.46;100.00;99354.06;637623;221;32467;-76
2021/03/11 10:11:14;;;;;;;4.17;3.20;;;;;;;9.42;100.00;99335.38;636796;225;24924;-76
2021/03/11 10:13:46;;;;;;;4.90;3.47;;;;;;;9.50;100.00;99357.95;645950;221;24809;-76
2021/03/11 10:16:11;;;;;;;3.80;2.77;;;;;;;9.49;100.00;99343.36;637243;224;24862;-76
2021/03/11 10:18:39;;;;;;;8.90;3.40;;;;;;;9.68;100.00;99326.66;643562;221;32408;-76
2021/03/11 10:21:08;;;;;;;3.30;2.67;;;;;;;9.61;100.00;99323.09;631864;225;25120;-76
2021/03/11 10:23:36;;;;;;;6.90;2.53;;;;;;;9.65;100.00;99330.39;647080;220;24797;-76
2021/03/11 10:26:12;;;;;;;4.07;2.40;;;;;;;9.66;100.00;99313.84;635921;224;24846;-76
2021/03/11 10:28:40;;;;;;;2.97;2.43;;;;;;;9.60;100.00;99307.20;646733;220;24810;-78
2021/03/11 10:31:08;;;;;;;2.57;2.27;;;;;;;9.63;100.00;99293.41;645684;221;24793;-78
2021/03/11 10:33:36;;;;;;;3.13;2.03;;;;;;;9.61;100.00;99299.73;638049;224;30376;-77
2021/03/11 10:36:11;;;;;;;3.60;2.30;;;;;;;9.76;100.00;99302.01;634920;225;28024;-78
2021/03/11 10:38:40;;;;;;;3.63;2.00;;;;;;;9.74;100.00;99259.33;647408;221;24854;-78
2021/03/11 10:41:11;;;;;;;2.97;1.90;;;;;;;9.90;100.00;99268.89;646834;220;23830;-78
2021/03/11 10:43:39;;;;;;;4.70;2.00;;;;;;;9.86;100.00;99266.80;637017;225;24875;-77
2021/03/11 10:46:07;;;;;;;2.60;2.13;;;;;;;9.90;100.00;99262.89;632849;225;24906;-78
2021/03/11 10:48:46;;;;;;;5.33;2.07;;;;;;;10.04;100.00;99256.53;637320;225;24877;-77
2021/03/11 10:51:18;;;;;;;2.10;1.90;;;;;;;10.03;100.00;99245.82;636900;224;24865;-77
2021/03/11 10:53:46;;;;;;;6.85;1.90;;;;;;;10.09;100.00;99237.84;638475;221;32755;-78
2021/03/11 10:56:15;;;;;;;3.33;1.93;;;;;;;10.02;100.00;99240.30;645359;221;30247;-77
2021/03/11 10:58:42;;;;;;;3.03;2.00;;;;;;;10.18;100.00;99232.15;634866;225;24934;-78
2021/03/11 11:01:10;;;;;;;2.33;1.70;;;;;;;10.22;100.00;99226.96;646920;221;24860;-79
2021/03/11 11:03:38;;;;;;;3.27;1.93;;;;;;;10.18;100.00;99236.05;636658;224;23930;-78
2021/03/11 11:06:06;;;;;;;2.10;1.90;;;;;;;10.18;100.00;99219.97;634333;225;24911;-77
2021/03/11 11:08:34;;;;;;;2.87;2.00;;;;;;;10.25;100.00;99220.93;634780;225;24876;-77
2021/03/11 11:11:02;;;;;;;2.33;1.90;;;;;;;10.30;100.00;99221.75;634099;225;24945;-77
2021/03/11 11:13:30;;;;;;;3.40;1.87;;;;;;;10.33;100.00;99227.91;647286;221;24800;-77
2021/03/11 11:16:00;;;;;;;2.60;1.40;;;;;;;10.35;100.00;99224.16;645900;221;28094;-79
2021/03/11 11:18:27;;;;;;;1.90;1.80;;;;;;;10.32;100.00;99219.79;633764;225;28194;-77
2021/03/11 11:20:55;;;;;;;1.63;1.53;;;;;;;10.36;100.00;99229.67;645778;221;24866;-77
2021/03/11 11:23:23;;;;;;;3.37;2.10;;;;;;;10.46;100.00;99216.48;632222;225;24869;-77
2021/03/11 11:25:51;;;;;;;2.50;1.67;;;;;;;10.54;100.00;99219.52;634299;223;24888;-77
2021/03/11 11:28:19;;;;;;;5.70;1.63;;;;;;;10.59;100.00;99212.86;637493;223;28064;-78
2021/03/11 11:30:47;;;;;;;4.30;1.67;;;;;;;10.73;100.00;99209.22;647634;221;23841;-77
2021/03/11 11:33:15;;;;;;;2.00;1.80;;;;;;;10.77;100.00;99208.69;639673;221;24909;-77
2021/03/11 11:35:43;;;;;;;1.60;1.50;;;;;;;10.76;100.00;99189.36;635351;225;24877;-78
2021/03/11 11:38:11;;;;;;;3.83;1.50;;;;;;;10.88;100.00;99194.00;647476;220;24832;-78
2021/03/11 11:40:40;;;;;;;1.73;1.60;;;;;;;11.00;100.00;99202.23;638916;221;24892;-77
2021/03/11 11:43:07;;;;;;;2.10;1.70;;;;;;;10.76;100.00;99193.27;624771;225;23954;-79